BEL2371 EBBR-EYVI
Flight info
| Callsign | BEL2371 |
|---|---|
| Flight time | 1h 59m |
| Altitude | 37000 |
| Route | SPI2X SPI Y862 KENUM N853 ONUNE DCT TOLGI DCT GILAS DCT DENKO N858 OTRIV DCT BOKSU DCT IRKAL IRKAL2A |
| Aircraft | A320/M-SDE3FGHIRWY/LB1 |
Departure
| Time | 2026-05-07 10:21 |
|---|---|
| Airport | Brussels Airport (EBBR) |
Arrival
| Time | 2026-05-07 12:20 |
|---|---|
| Airport | Vilnius International Airport (EYVI) |
| Time | Latitude | Longitude | Altitude | Speed | Heading |
|---|---|---|---|---|---|
| 2026-05-07 10:02 | 50.90378 | 4.48481 | 121 ft | 0 kts | 155° |
| 2026-05-07 10:10 | 50.90391 | 4.48472 | 117 ft | 4 kts | 154° |
| 2026-05-07 10:10 | 50.90412 | 4.48451 | 116 ft | 4 kts | 118° |
| 2026-05-07 10:11 | 50.90415 | 4.48433 | 121 ft | 0 kts | 65° |
| 2026-05-07 10:14 | 50.90415 | 4.48434 | 121 ft | 1 kts | 65° |
| 2026-05-07 10:14 | 50.90458 | 4.48502 | 118 ft | 16 kts | 38° |
| 2026-05-07 10:15 | 50.90540 | 4.48688 | 118 ft | 26 kts | 69° |
| 2026-05-07 10:15 | 50.90622 | 4.48994 | 118 ft | 33 kts | 64° |
| 2026-05-07 10:15 | 50.90725 | 4.49347 | 121 ft | 36 kts | 65° |
| 2026-05-07 10:15 | 50.90809 | 4.49635 | 122 ft | 21 kts | 65° |
| 2026-05-07 10:16 | 50.90906 | 4.49784 | 122 ft | 19 kts | 26° |
| 2026-05-07 10:16 | 50.90992 | 4.49871 | 119 ft | 0 kts | 35° |
| 2026-05-07 10:16 | 50.90995 | 4.49875 | 119 ft | 1 kts | 35° |
| 2026-05-07 10:16 | 50.90998 | 4.49877 | 118 ft | 0 kts | 35° |
| 2026-05-07 10:17 | 50.90998 | 4.49878 | 118 ft | 0 kts | 35° |
| 2026-05-07 10:17 | 50.91036 | 4.49910 | 119 ft | 8 kts | 24° |
| 2026-05-07 10:18 | 50.91043 | 4.49914 | 119 ft | 0 kts | 24° |
| 2026-05-07 10:19 | 50.91070 | 4.49932 | 118 ft | 12 kts | 21° |
| 2026-05-07 10:19 | 50.91129 | 4.49842 | 115 ft | 18 kts | 252° |
| 2026-05-07 10:19 | 50.91109 | 4.49786 | 119 ft | 0 kts | 245° |
| 2026-05-07 10:20 | 50.91108 | 4.49781 | 119 ft | 4 kts | 245° |
| 2026-05-07 10:20 | 50.91021 | 4.49479 | 118 ft | 66 kts | 245° |
| 2026-05-07 10:20 | 50.90738 | 4.48496 | 119 ft | 128 kts | 245° |
| 2026-05-07 10:21 | 50.90298 | 4.46985 | 200 ft | 168 kts | 245° |
| 2026-05-07 10:21 | 50.89824 | 4.45321 | 908 ft | 163 kts | 246° |
| 2026-05-07 10:21 | 50.89363 | 4.43676 | 1571 ft | 166 kts | 244° |
| 2026-05-07 10:21 | 50.88879 | 4.42005 | 2156 ft | 170 kts | 245° |
| 2026-05-07 10:22 | 50.88384 | 4.40318 | 2773 ft | 170 kts | 245° |
| 2026-05-07 10:22 | 50.87889 | 4.38631 | 3365 ft | 171 kts | 245° |
| 2026-05-07 10:22 | 50.87362 | 4.36830 | 3689 ft | 191 kts | 245° |
| 2026-05-07 10:22 | 50.86769 | 4.34798 | 3995 ft | 215 kts | 245° |
| 2026-05-07 10:23 | 50.86094 | 4.32567 | 4333 ft | 238 kts | 240° |
| 2026-05-07 10:23 | 50.85052 | 4.30379 | 4764 ft | 261 kts | 224° |
| 2026-05-07 10:23 | 50.83559 | 4.28666 | 5528 ft | 268 kts | 207° |
| 2026-05-07 10:23 | 50.81786 | 4.27733 | 6455 ft | 271 kts | 189° |
| 2026-05-07 10:24 | 50.79901 | 4.27714 | 7306 ft | 274 kts | 171° |
| 2026-05-07 10:24 | 50.78079 | 4.28646 | 8159 ft | 278 kts | 153° |
| 2026-05-07 10:24 | 50.76514 | 4.30468 | 8995 ft | 283 kts | 134° |
| 2026-05-07 10:24 | 50.75386 | 4.33033 | 9797 ft | 288 kts | 115° |
| 2026-05-07 10:25 | 50.74840 | 4.36089 | 10539 ft | 293 kts | 95° |
| 2026-05-07 10:25 | 50.74943 | 4.39314 | 11251 ft | 297 kts | 81° |
| 2026-05-07 10:25 | 50.75143 | 4.42581 | 11975 ft | 301 kts | 90° |
| 2026-05-07 10:25 | 50.74933 | 4.45879 | 12709 ft | 304 kts | 103° |
| 2026-05-07 10:26 | 50.74332 | 4.49137 | 13188 ft | 319 kts | 108° |
| 2026-05-07 10:26 | 50.73636 | 4.52588 | 13350 ft | 341 kts | 108° |
| 2026-05-07 10:26 | 50.72890 | 4.56263 | 13605 ft | 359 kts | 108° |
| 2026-05-07 10:26 | 50.72121 | 4.60056 | 14155 ft | 366 kts | 108° |
| 2026-05-07 10:27 | 50.71353 | 4.63899 | 14760 ft | 369 kts | 108° |
| 2026-05-07 10:27 | 50.70587 | 4.67788 | 15376 ft | 373 kts | 108° |
| 2026-05-07 10:27 | 50.69816 | 4.71714 | 15988 ft | 376 kts | 108° |
| 2026-05-07 10:27 | 50.69050 | 4.75623 | 16587 ft | 380 kts | 108° |
| 2026-05-07 10:28 | 50.68264 | 4.79616 | 17195 ft | 383 kts | 108° |
| 2026-05-07 10:28 | 50.67464 | 4.83640 | 17801 ft | 386 kts | 108° |
| 2026-05-07 10:28 | 50.66655 | 4.87696 | 18392 ft | 390 kts | 108° |
| 2026-05-07 10:28 | 50.65834 | 4.91793 | 18921 ft | 393 kts | 108° |
| 2026-05-07 10:29 | 50.65008 | 4.95913 | 19457 ft | 396 kts | 108° |
| 2026-05-07 10:29 | 50.64177 | 5.00064 | 19996 ft | 399 kts | 108° |
| 2026-05-07 10:29 | 50.63338 | 5.04256 | 20521 ft | 402 kts | 108° |
| 2026-05-07 10:30 | 50.61641 | 5.12705 | 21578 ft | 408 kts | 108° |
| 2026-05-07 10:30 | 50.60778 | 5.16981 | 22090 ft | 411 kts | 108° |
| 2026-05-07 10:30 | 50.59907 | 5.21276 | 22585 ft | 413 kts | 108° |
| 2026-05-07 10:30 | 50.59028 | 5.25605 | 23067 ft | 416 kts | 108° |
| 2026-05-07 10:31 | 50.58141 | 5.29958 | 23542 ft | 419 kts | 108° |
| 2026-05-07 10:31 | 50.57247 | 5.34336 | 23940 ft | 422 kts | 108° |
| 2026-05-07 10:31 | 50.56341 | 5.38748 | 24331 ft | 424 kts | 108° |
| 2026-05-07 10:31 | 50.55431 | 5.43170 | 24707 ft | 426 kts | 108° |
| 2026-05-07 10:32 | 50.54513 | 5.47626 | 25080 ft | 429 kts | 108° |
| 2026-05-07 10:32 | 50.53596 | 5.52103 | 25444 ft | 431 kts | 107° |
| 2026-05-07 10:32 | 50.52977 | 5.56718 | 25795 ft | 433 kts | 96° |
| 2026-05-07 10:32 | 50.52894 | 5.61389 | 26136 ft | 435 kts | 86° |
| 2026-05-07 10:33 | 50.53357 | 5.66108 | 26476 ft | 437 kts | 75° |
| 2026-05-07 10:33 | 50.54346 | 5.70627 | 26815 ft | 439 kts | 65° |
| 2026-05-07 10:33 | 50.55753 | 5.74890 | 27154 ft | 440 kts | 61° |
| 2026-05-07 10:33 | 50.57203 | 5.79146 | 27488 ft | 442 kts | 61° |
| 2026-05-07 10:34 | 50.58648 | 5.83430 | 27809 ft | 444 kts | 62° |
| 2026-05-07 10:34 | 50.60101 | 5.87757 | 28122 ft | 446 kts | 62° |
| 2026-05-07 10:34 | 50.61555 | 5.92090 | 28437 ft | 448 kts | 62° |
| 2026-05-07 10:34 | 50.62996 | 5.96379 | 28743 ft | 449 kts | 61° |
| 2026-05-07 10:35 | 50.64465 | 6.00740 | 29037 ft | 451 kts | 61° |
| 2026-05-07 10:35 | 50.65956 | 6.05178 | 29313 ft | 453 kts | 62° |
| 2026-05-07 10:35 | 50.67428 | 6.09577 | 29589 ft | 454 kts | 62° |
| 2026-05-07 10:35 | 50.68905 | 6.14000 | 29869 ft | 456 kts | 61° |
| 2026-05-07 10:36 | 50.70387 | 6.18422 | 30113 ft | 457 kts | 61° |
| 2026-05-07 10:36 | 50.72026 | 6.22649 | 30354 ft | 457 kts | 53° |
| 2026-05-07 10:36 | 50.74063 | 6.26491 | 30636 ft | 455 kts | 45° |
| 2026-05-07 10:36 | 50.76371 | 6.29903 | 30927 ft | 454 kts | 41° |
| 2026-05-07 10:37 | 50.78680 | 6.33241 | 31214 ft | 453 kts | 41° |
| 2026-05-07 10:37 | 50.80975 | 6.36585 | 31504 ft | 453 kts | 42° |
| 2026-05-07 10:37 | 50.83346 | 6.40056 | 31804 ft | 452 kts | 42° |
| 2026-05-07 10:37 | 50.85638 | 6.43412 | 32096 ft | 451 kts | 42° |
| 2026-05-07 10:38 | 50.87941 | 6.46790 | 32388 ft | 451 kts | 42° |
| 2026-05-07 10:38 | 50.90234 | 6.50162 | 32691 ft | 450 kts | 42° |
| 2026-05-07 10:38 | 50.92528 | 6.53537 | 32989 ft | 449 kts | 42° |
| 2026-05-07 10:38 | 50.94809 | 6.56890 | 33281 ft | 449 kts | 42° |
| 2026-05-07 10:39 | 50.97095 | 6.60253 | 33576 ft | 448 kts | 42° |
| 2026-05-07 10:39 | 50.99377 | 6.63614 | 33867 ft | 447 kts | 41° |
| 2026-05-07 10:39 | 51.01650 | 6.67007 | 34133 ft | 447 kts | 45° |
| 2026-05-07 10:39 | 51.03676 | 6.70779 | 34347 ft | 449 kts | 52° |
| 2026-05-07 10:40 | 51.05552 | 6.74748 | 34551 ft | 449 kts | 52° |
| 2026-05-07 10:40 | 51.07433 | 6.78723 | 34730 ft | 451 kts | 52° |
| 2026-05-07 10:40 | 51.09318 | 6.82707 | 34916 ft | 451 kts | 52° |
| 2026-05-07 10:40 | 51.11210 | 6.86699 | 35089 ft | 452 kts | 52° |
| 2026-05-07 10:41 | 51.13103 | 6.90692 | 35280 ft | 453 kts | 52° |
| 2026-05-07 10:41 | 51.14995 | 6.94699 | 35463 ft | 453 kts | 52° |
| 2026-05-07 10:41 | 51.16887 | 6.98718 | 35658 ft | 453 kts | 52° |
| 2026-05-07 10:41 | 51.18778 | 7.02739 | 35814 ft | 454 kts | 52° |
| 2026-05-07 10:42 | 51.20646 | 7.06717 | 36001 ft | 454 kts | 52° |
| 2026-05-07 10:42 | 51.22540 | 7.10756 | 36159 ft | 455 kts | 52° |
| 2026-05-07 10:42 | 51.24435 | 7.14799 | 36334 ft | 455 kts | 52° |
| 2026-05-07 10:42 | 51.26331 | 7.18852 | 36463 ft | 456 kts | 53° |
| 2026-05-07 10:43 | 51.28230 | 7.22922 | 36597 ft | 457 kts | 53° |
| 2026-05-07 10:43 | 51.30130 | 7.27005 | 36727 ft | 458 kts | 53° |
| 2026-05-07 10:43 | 51.32029 | 7.31096 | 36877 ft | 459 kts | 53° |
| 2026-05-07 10:43 | 51.33928 | 7.35197 | 37023 ft | 459 kts | 53° |
| 2026-05-07 10:44 | 51.37351 | 7.43821 | 37049 ft | 460 kts | 66° |
| 2026-05-07 10:44 | 51.39583 | 7.53436 | 37053 ft | 461 kts | 70° |
| 2026-05-07 10:45 | 51.41774 | 7.63075 | 37058 ft | 461 kts | 70° |
| 2026-05-07 10:45 | 51.43974 | 7.72716 | 37059 ft | 461 kts | 70° |
| 2026-05-07 10:46 | 51.46157 | 7.82390 | 37054 ft | 461 kts | 70° |
| 2026-05-07 10:46 | 51.48328 | 7.92078 | 37046 ft | 462 kts | 70° |
| 2026-05-07 10:47 | 51.50484 | 8.01784 | 37048 ft | 462 kts | 70° |
| 2026-05-07 10:47 | 51.52272 | 8.09872 | 37046 ft | 462 kts | 70° |
| 2026-05-07 10:48 | 51.54418 | 8.19597 | 37050 ft | 462 kts | 70° |
| 2026-05-07 10:48 | 51.56564 | 8.29327 | 37038 ft | 462 kts | 71° |
| 2026-05-07 10:49 | 51.58704 | 8.39071 | 37033 ft | 462 kts | 71° |
| 2026-05-07 10:49 | 51.60826 | 8.48834 | 37035 ft | 462 kts | 71° |
| 2026-05-07 10:50 | 51.62940 | 8.58602 | 37033 ft | 462 kts | 71° |
| 2026-05-07 10:50 | 51.65051 | 8.68379 | 37033 ft | 462 kts | 71° |
| 2026-05-07 10:51 | 51.67155 | 8.78171 | 37030 ft | 463 kts | 71° |
| 2026-05-07 10:51 | 51.69238 | 8.87920 | 37030 ft | 463 kts | 71° |
| 2026-05-07 10:52 | 51.71327 | 8.97749 | 37037 ft | 464 kts | 71° |
| 2026-05-07 10:52 | 51.73412 | 9.07585 | 37033 ft | 463 kts | 71° |
| 2026-05-07 10:53 | 51.75482 | 9.17420 | 37027 ft | 463 kts | 71° |
| 2026-05-07 10:53 | 51.77546 | 9.27269 | 37029 ft | 463 kts | 72° |
| 2026-05-07 10:54 | 51.79599 | 9.37130 | 37027 ft | 463 kts | 72° |
| 2026-05-07 10:54 | 51.81645 | 9.47008 | 37029 ft | 463 kts | 72° |
| 2026-05-07 10:55 | 51.83657 | 9.56902 | 37029 ft | 463 kts | 73° |
| 2026-05-07 10:55 | 51.85515 | 9.66871 | 37030 ft | 463 kts | 74° |
| 2026-05-07 10:56 | 51.87297 | 9.76886 | 37032 ft | 463 kts | 74° |
| 2026-05-07 10:56 | 51.89091 | 9.86892 | 37024 ft | 463 kts | 74° |
| 2026-05-07 10:57 | 51.90915 | 9.96897 | 37025 ft | 463 kts | 74° |
| 2026-05-07 10:57 | 51.92727 | 10.06905 | 37022 ft | 463 kts | 74° |
| 2026-05-07 10:58 | 51.94521 | 10.16928 | 37016 ft | 463 kts | 74° |
| 2026-05-07 10:58 | 51.96302 | 10.26955 | 37016 ft | 463 kts | 75° |
| 2026-05-07 10:59 | 51.98082 | 10.36986 | 37008 ft | 463 kts | 75° |
| 2026-05-07 10:59 | 51.99856 | 10.47035 | 37015 ft | 463 kts | 75° |
| 2026-05-07 11:00 | 52.01622 | 10.57097 | 37027 ft | 464 kts | 75° |
| 2026-05-07 11:00 | 52.03380 | 10.67175 | 37044 ft | 464 kts | 75° |
| 2026-05-07 11:01 | 52.05127 | 10.77272 | 37055 ft | 464 kts | 75° |
| 2026-05-07 11:01 | 52.06859 | 10.87361 | 37035 ft | 463 kts | 75° |
| 2026-05-07 11:02 | 52.08574 | 10.97375 | 37030 ft | 463 kts | 75° |
| 2026-05-07 11:02 | 52.10294 | 11.07463 | 37029 ft | 463 kts | 76° |
| 2026-05-07 11:03 | 52.12002 | 11.17563 | 37031 ft | 463 kts | 76° |
| 2026-05-07 11:03 | 52.13706 | 11.27685 | 37033 ft | 464 kts | 76° |
| 2026-05-07 11:04 | 52.15402 | 11.37813 | 37027 ft | 463 kts | 76° |
| 2026-05-07 11:04 | 52.17085 | 11.47931 | 37024 ft | 463 kts | 76° |
| 2026-05-07 11:05 | 52.18761 | 11.58065 | 37021 ft | 463 kts | 76° |
| 2026-05-07 11:05 | 52.20432 | 11.68203 | 37030 ft | 463 kts | 76° |
| 2026-05-07 11:06 | 52.22089 | 11.78356 | 37030 ft | 463 kts | 76° |
| 2026-05-07 11:06 | 52.23732 | 11.88512 | 37027 ft | 463 kts | 76° |
| 2026-05-07 11:07 | 52.25371 | 11.98669 | 37019 ft | 463 kts | 77° |
| 2026-05-07 11:07 | 52.26996 | 12.08776 | 37009 ft | 464 kts | 77° |
| 2026-05-07 11:08 | 52.28625 | 12.18977 | 37016 ft | 464 kts | 77° |
| 2026-05-07 11:08 | 52.30237 | 12.29178 | 37012 ft | 464 kts | 77° |
| 2026-05-07 11:09 | 52.31839 | 12.39403 | 37024 ft | 464 kts | 77° |
| 2026-05-07 11:09 | 52.33449 | 12.49664 | 37016 ft | 465 kts | 77° |
| 2026-05-07 11:10 | 52.35040 | 12.59879 | 37017 ft | 465 kts | 77° |
| 2026-05-07 11:10 | 52.36633 | 12.70155 | 37022 ft | 466 kts | 77° |
| 2026-05-07 11:11 | 52.38215 | 12.80443 | 37032 ft | 466 kts | 77° |
| 2026-05-07 11:11 | 52.39786 | 12.90749 | 37032 ft | 466 kts | 78° |
| 2026-05-07 11:12 | 52.41343 | 13.01052 | 37033 ft | 466 kts | 78° |
| 2026-05-07 11:12 | 52.42900 | 13.11365 | 37013 ft | 466 kts | 78° |
| 2026-05-07 11:13 | 52.44446 | 13.21673 | 37029 ft | 466 kts | 78° |
| 2026-05-07 11:13 | 52.45971 | 13.31932 | 37033 ft | 467 kts | 79° |
| 2026-05-07 11:14 | 52.47511 | 13.42364 | 37035 ft | 466 kts | 79° |
| 2026-05-07 11:14 | 52.49029 | 13.52706 | 37037 ft | 467 kts | 79° |
| 2026-05-07 11:15 | 52.50532 | 13.62998 | 37020 ft | 467 kts | 79° |
| 2026-05-07 11:15 | 52.52039 | 13.73378 | 37026 ft | 467 kts | 79° |
| 2026-05-07 11:16 | 52.53531 | 13.83755 | 37025 ft | 467 kts | 79° |
| 2026-05-07 11:16 | 52.55017 | 13.94160 | 37025 ft | 468 kts | 79° |
| 2026-05-07 11:17 | 52.56494 | 14.04572 | 37028 ft | 468 kts | 80° |
| 2026-05-07 11:17 | 52.57955 | 14.14980 | 37004 ft | 467 kts | 80° |
| 2026-05-07 11:18 | 52.59413 | 14.25405 | 37019 ft | 467 kts | 80° |
| 2026-05-07 11:18 | 52.60865 | 14.35829 | 37019 ft | 468 kts | 80° |
| 2026-05-07 11:19 | 52.62309 | 14.46266 | 37029 ft | 468 kts | 80° |
| 2026-05-07 11:19 | 52.63752 | 14.56701 | 37036 ft | 468 kts | 80° |
| 2026-05-07 11:20 | 52.65264 | 14.67059 | 37041 ft | 468 kts | 79° |
| 2026-05-07 11:20 | 52.66817 | 14.77487 | 37043 ft | 468 kts | 79° |
| 2026-05-07 11:21 | 52.68349 | 14.87913 | 37038 ft | 468 kts | 79° |
| 2026-05-07 11:21 | 52.69849 | 14.98363 | 37043 ft | 468 kts | 79° |
| 2026-05-07 11:22 | 52.71336 | 15.08817 | 37043 ft | 468 kts | 79° |
| 2026-05-07 11:22 | 52.72817 | 15.19218 | 37034 ft | 468 kts | 79° |
| 2026-05-07 11:23 | 52.74306 | 15.29718 | 37026 ft | 468 kts | 80° |
| 2026-05-07 11:23 | 52.75768 | 15.40183 | 37031 ft | 468 kts | 80° |
| 2026-05-07 11:24 | 52.77224 | 15.50661 | 37034 ft | 468 kts | 80° |
| 2026-05-07 11:24 | 52.78680 | 15.61139 | 37032 ft | 468 kts | 80° |
| 2026-05-07 11:25 | 52.80116 | 15.71626 | 37026 ft | 468 kts | 80° |
| 2026-05-07 11:25 | 52.81571 | 15.82112 | 37009 ft | 469 kts | 76° |
| 2026-05-07 11:26 | 52.83961 | 15.92195 | 37001 ft | 472 kts | 69° |
| 2026-05-07 11:26 | 52.86521 | 16.02211 | 37011 ft | 473 kts | 69° |
| 2026-05-07 11:27 | 52.89067 | 16.12254 | 37014 ft | 473 kts | 70° |
| 2026-05-07 11:27 | 52.91603 | 16.22320 | 37022 ft | 473 kts | 70° |
| 2026-05-07 11:28 | 52.94130 | 16.32400 | 37026 ft | 473 kts | 70° |
| 2026-05-07 11:28 | 52.96642 | 16.42491 | 37012 ft | 474 kts | 70° |
| 2026-05-07 11:29 | 52.99153 | 16.52614 | 37004 ft | 475 kts | 70° |
| 2026-05-07 11:29 | 53.01656 | 16.62739 | 37008 ft | 476 kts | 70° |
| 2026-05-07 11:30 | 53.04162 | 16.72918 | 37007 ft | 476 kts | 70° |
| 2026-05-07 11:30 | 53.06663 | 16.83125 | 37021 ft | 477 kts | 70° |
| 2026-05-07 11:31 | 53.09155 | 16.93341 | 37020 ft | 477 kts | 70° |
| 2026-05-07 11:31 | 53.11220 | 17.01853 | 37021 ft | 477 kts | 70° |
| 2026-05-07 11:32 | 53.15337 | 17.18905 | 36995 ft | 478 kts | 71° |
| 2026-05-07 11:33 | 53.17403 | 17.27529 | 36997 ft | 479 kts | 71° |
| 2026-05-07 11:33 | 53.19848 | 17.37810 | 37000 ft | 479 kts | 71° |
| 2026-05-07 11:34 | 53.22305 | 17.48159 | 37017 ft | 479 kts | 71° |
| 2026-05-07 11:34 | 53.24757 | 17.58514 | 37009 ft | 480 kts | 71° |
| 2026-05-07 11:35 | 53.27199 | 17.68868 | 36981 ft | 480 kts | 71° |
| 2026-05-07 11:35 | 53.29625 | 17.79245 | 36982 ft | 481 kts | 71° |
| 2026-05-07 11:36 | 53.32054 | 17.89689 | 36992 ft | 481 kts | 71° |
| 2026-05-07 11:36 | 53.34479 | 18.00130 | 36996 ft | 482 kts | 71° |
| 2026-05-07 11:37 | 53.36896 | 18.10595 | 37002 ft | 482 kts | 71° |
| 2026-05-07 11:37 | 53.39295 | 18.21075 | 37004 ft | 482 kts | 72° |
| 2026-05-07 11:38 | 53.41667 | 18.31510 | 37005 ft | 482 kts | 72° |
| 2026-05-07 11:38 | 53.44065 | 18.42094 | 36983 ft | 483 kts | 72° |
| 2026-05-07 11:39 | 53.46435 | 18.52640 | 36990 ft | 483 kts | 72° |
| 2026-05-07 11:39 | 53.48798 | 18.63209 | 36999 ft | 484 kts | 72° |
| 2026-05-07 11:40 | 53.51139 | 18.73714 | 37002 ft | 484 kts | 72° |
| 2026-05-07 11:40 | 53.53450 | 18.84321 | 37010 ft | 483 kts | 73° |
| 2026-05-07 11:41 | 53.55623 | 18.94999 | 37003 ft | 482 kts | 74° |
| 2026-05-07 11:41 | 53.57749 | 19.05708 | 36972 ft | 483 kts | 74° |
| 2026-05-07 11:42 | 53.59891 | 19.16403 | 36980 ft | 484 kts | 74° |
| 2026-05-07 11:42 | 53.62051 | 19.27131 | 36978 ft | 484 kts | 74° |
| 2026-05-07 11:43 | 53.64209 | 19.37881 | 36984 ft | 484 kts | 74° |
| 2026-05-07 11:43 | 53.66344 | 19.48642 | 36985 ft | 484 kts | 74° |
| 2026-05-07 11:44 | 53.68471 | 19.59423 | 36987 ft | 484 kts | 74° |
| 2026-05-07 11:44 | 53.70592 | 19.70216 | 36965 ft | 485 kts | 74° |
| 2026-05-07 11:45 | 53.72697 | 19.81000 | 36970 ft | 485 kts | 75° |
| 2026-05-07 11:45 | 53.74802 | 19.91847 | 36981 ft | 486 kts | 75° |
| 2026-05-07 11:46 | 53.76900 | 20.02713 | 36983 ft | 486 kts | 75° |
| 2026-05-07 11:46 | 53.78985 | 20.13597 | 36987 ft | 486 kts | 75° |
| 2026-05-07 11:47 | 53.81052 | 20.24484 | 36992 ft | 486 kts | 75° |
| 2026-05-07 11:47 | 53.83108 | 20.35321 | 36966 ft | 486 kts | 75° |
| 2026-05-07 11:48 | 53.85142 | 20.46144 | 36969 ft | 486 kts | 75° |
| 2026-05-07 11:48 | 53.87204 | 20.57112 | 36969 ft | 487 kts | 75° |
| 2026-05-07 11:49 | 53.89254 | 20.68039 | 36974 ft | 487 kts | 75° |
| 2026-05-07 11:49 | 53.91281 | 20.78990 | 36973 ft | 487 kts | 75° |
| 2026-05-07 11:50 | 53.93294 | 20.89955 | 36972 ft | 487 kts | 75° |
| 2026-05-07 11:50 | 53.95303 | 21.00917 | 36981 ft | 486 kts | 75° |
| 2026-05-07 11:51 | 53.97308 | 21.11891 | 36967 ft | 487 kts | 75° |
| 2026-05-07 11:51 | 53.99293 | 21.22888 | 36962 ft | 487 kts | 76° |
| 2026-05-07 11:52 | 54.01272 | 21.33891 | 36960 ft | 487 kts | 76° |
| 2026-05-07 11:52 | 54.03256 | 21.44906 | 36960 ft | 486 kts | 76° |
| 2026-05-07 11:53 | 54.05223 | 21.55916 | 36957 ft | 487 kts | 76° |
| 2026-05-07 11:53 | 54.07176 | 21.66948 | 36945 ft | 487 kts | 76° |
| 2026-05-07 11:54 | 54.09113 | 21.78001 | 36965 ft | 487 kts | 76° |
| 2026-05-07 11:54 | 54.11047 | 21.89053 | 36941 ft | 487 kts | 76° |
| 2026-05-07 11:55 | 54.12979 | 22.00111 | 36944 ft | 487 kts | 76° |
| 2026-05-07 11:55 | 54.14896 | 22.11175 | 36944 ft | 486 kts | 76° |
| 2026-05-07 11:56 | 54.16787 | 22.22170 | 36943 ft | 486 kts | 76° |
| 2026-05-07 11:56 | 54.18679 | 22.33251 | 36925 ft | 486 kts | 76° |
| 2026-05-07 11:57 | 54.20552 | 22.44344 | 36942 ft | 486 kts | 76° |
| 2026-05-07 11:57 | 54.22419 | 22.55458 | 36944 ft | 487 kts | 76° |
| 2026-05-07 11:58 | 54.24278 | 22.66582 | 36933 ft | 487 kts | 76° |
| 2026-05-07 11:58 | 54.26127 | 22.77722 | 36934 ft | 487 kts | 76° |
| 2026-05-07 11:59 | 54.27974 | 22.88882 | 36949 ft | 487 kts | 77° |
| 2026-05-07 11:59 | 54.29806 | 23.00057 | 36918 ft | 487 kts | 77° |
| 2026-05-07 12:00 | 54.31619 | 23.11234 | 36935 ft | 487 kts | 77° |
| 2026-05-07 12:00 | 54.33376 | 23.22436 | 36943 ft | 487 kts | 77° |
| 2026-05-07 12:01 | 54.35100 | 23.33653 | 36942 ft | 487 kts | 78° |
| 2026-05-07 12:01 | 54.36821 | 23.44879 | 36935 ft | 487 kts | 77° |
| 2026-05-07 12:02 | 54.38542 | 23.56081 | 36241 ft | 485 kts | 78° |
| 2026-05-07 12:02 | 54.39400 | 23.61691 | 35399 ft | 487 kts | 78° |
| 2026-05-07 12:02 | 54.40239 | 23.67194 | 34605 ft | 490 kts | 78° |
| 2026-05-07 12:02 | 54.41076 | 23.72728 | 33768 ft | 494 kts | 78° |
| 2026-05-07 12:03 | 54.41939 | 23.78459 | 32782 ft | 497 kts | 78° |
| 2026-05-07 12:03 | 54.42802 | 23.84204 | 31865 ft | 499 kts | 78° |
| 2026-05-07 12:03 | 54.43668 | 23.89982 | 31036 ft | 500 kts | 78° |
| 2026-05-07 12:03 | 54.44524 | 23.95713 | 30257 ft | 490 kts | 78° |
| 2026-05-07 12:04 | 54.45364 | 24.01346 | 29110 ft | 483 kts | 78° |
| 2026-05-07 12:04 | 54.46191 | 24.06893 | 28034 ft | 475 kts | 78° |
| 2026-05-07 12:04 | 54.46996 | 24.12329 | 27038 ft | 466 kts | 78° |
| 2026-05-07 12:04 | 54.47772 | 24.17612 | 25851 ft | 461 kts | 78° |
| 2026-05-07 12:05 | 54.48561 | 24.23002 | 24216 ft | 468 kts | 78° |
| 2026-05-07 12:05 | 54.49354 | 24.28445 | 22654 ft | 469 kts | 78° |
| 2026-05-07 12:05 | 54.50141 | 24.33847 | 21352 ft | 462 kts | 78° |
| 2026-05-07 12:05 | 54.50918 | 24.39168 | 20128 ft | 455 kts | 78° |
| 2026-05-07 12:06 | 54.51680 | 24.44410 | 18966 ft | 448 kts | 78° |
| 2026-05-07 12:06 | 54.52424 | 24.49577 | 17812 ft | 442 kts | 78° |
| 2026-05-07 12:06 | 54.53156 | 24.54685 | 16635 ft | 436 kts | 78° |
| 2026-05-07 12:06 | 54.53875 | 24.59707 | 15556 ft | 428 kts | 78° |
| 2026-05-07 12:07 | 54.54577 | 24.64633 | 14531 ft | 420 kts | 78° |
| 2026-05-07 12:07 | 54.55265 | 24.69470 | 13507 ft | 412 kts | 78° |
| 2026-05-07 12:07 | 54.55941 | 24.74228 | 12373 ft | 405 kts | 78° |
| 2026-05-07 12:07 | 54.56603 | 24.78907 | 11383 ft | 396 kts | 78° |
| 2026-05-07 12:08 | 54.57229 | 24.83341 | 11189 ft | 366 kts | 78° |
| 2026-05-07 12:08 | 54.57809 | 24.87448 | 11056 ft | 339 kts | 79° |
| 2026-05-07 12:08 | 54.58043 | 24.91296 | 10929 ft | 309 kts | 101° |
| 2026-05-07 12:08 | 54.57459 | 24.94656 | 10662 ft | 283 kts | 125° |
| 2026-05-07 12:09 | 54.56285 | 24.97146 | 10202 ft | 264 kts | 148° |
| 2026-05-07 12:09 | 54.54777 | 24.98833 | 9647 ft | 257 kts | 155° |
| 2026-05-07 12:09 | 54.53251 | 25.00425 | 9057 ft | 255 kts | 155° |
| 2026-05-07 12:09 | 54.51739 | 25.02013 | 8451 ft | 254 kts | 155° |
| 2026-05-07 12:10 | 54.50243 | 25.03593 | 7854 ft | 252 kts | 155° |
| 2026-05-07 12:10 | 54.48855 | 25.05458 | 7268 ft | 257 kts | 140° |
| 2026-05-07 12:10 | 54.47807 | 25.07986 | 6690 ft | 264 kts | 122° |
| 2026-05-07 12:10 | 54.47099 | 25.10911 | 6123 ft | 263 kts | 117° |
| 2026-05-07 12:11 | 54.46585 | 25.13820 | 6036 ft | 253 kts | 96° |
| 2026-05-07 12:11 | 54.47019 | 25.16710 | 5923 ft | 253 kts | 54° |
| 2026-05-07 12:11 | 54.48309 | 25.18612 | 5777 ft | 241 kts | 25° |
| 2026-05-07 12:11 | 54.49793 | 25.19767 | 5656 ft | 226 kts | 16° |
| 2026-05-07 12:12 | 54.51223 | 25.20650 | 5545 ft | 212 kts | 13° |
| 2026-05-07 12:12 | 54.52614 | 25.21477 | 5043 ft | 215 kts | 13° |
| 2026-05-07 12:12 | 54.54066 | 25.22286 | 4365 ft | 223 kts | 11° |
| 2026-05-07 12:12 | 54.55549 | 25.23163 | 3687 ft | 226 kts | 18° |
| 2026-05-07 12:13 | 54.56987 | 25.24138 | 2931 ft | 219 kts | 18° |
| 2026-05-07 12:13 | 54.58377 | 25.25108 | 2216 ft | 211 kts | 19° |
| 2026-05-07 12:13 | 54.59734 | 25.26113 | 2392 ft | 227 kts | 20° |
| 2026-05-07 12:13 | 54.61143 | 25.27269 | 2719 ft | 224 kts | 33° |
| 2026-05-07 12:14 | 54.62107 | 25.29409 | 3209 ft | 240 kts | 72° |
| 2026-05-07 12:14 | 54.62185 | 25.32264 | 3887 ft | 239 kts | 107° |
| 2026-05-07 12:14 | 54.61395 | 25.34667 | 3858 ft | 224 kts | 145° |
| 2026-05-07 12:14 | 54.59954 | 25.35698 | 3841 ft | 229 kts | 182° |
| 2026-05-07 12:15 | 54.58376 | 25.35372 | 3907 ft | 232 kts | 191° |
| 2026-05-07 12:15 | 54.56762 | 25.35224 | 3652 ft | 234 kts | 184° |
| 2026-05-07 12:15 | 54.55125 | 25.35205 | 3404 ft | 233 kts | 184° |
| 2026-05-07 12:15 | 54.53505 | 25.35184 | 3140 ft | 234 kts | 184° |
| 2026-05-07 12:16 | 54.51874 | 25.35148 | 2804 ft | 235 kts | 184° |
| 2026-05-07 12:16 | 54.50299 | 25.34703 | 2679 ft | 224 kts | 209° |
| 2026-05-07 12:16 | 54.49183 | 25.33035 | 2684 ft | 211 kts | 239° |
| 2026-05-07 12:16 | 54.48641 | 25.30743 | 2699 ft | 206 kts | 264° |
| 2026-05-07 12:17 | 54.48915 | 25.28346 | 2705 ft | 208 kts | 292° |
| 2026-05-07 12:17 | 54.49588 | 25.26183 | 2700 ft | 205 kts | 297° |
| 2026-05-07 12:17 | 54.50424 | 25.24226 | 2702 ft | 205 kts | 317° |
| 2026-05-07 12:17 | 54.51621 | 25.22913 | 2694 ft | 204 kts | 329° |
| 2026-05-07 12:18 | 54.52984 | 25.22204 | 2518 ft | 210 kts | 351° |
| 2026-05-07 12:18 | 54.54471 | 25.22421 | 2295 ft | 220 kts | 14° |
| 2026-05-07 12:18 | 54.55908 | 25.23372 | 2012 ft | 220 kts | 20° |
| 2026-05-07 12:18 | 54.57308 | 25.24352 | 1704 ft | 211 kts | 19° |
| 2026-05-07 12:19 | 54.58608 | 25.25255 | 1464 ft | 195 kts | 18° |
| 2026-05-07 12:19 | 54.59845 | 25.26110 | 1169 ft | 188 kts | 19° |
| 2026-05-07 12:19 | 54.61028 | 25.26958 | 983 ft | 174 kts | 21° |
| 2026-05-07 12:19 | 54.62095 | 25.27668 | 720 ft | 157 kts | 19° |
| 2026-05-07 12:20 | 54.63041 | 25.28319 | 603 ft | 131 kts | 20° |
| 2026-05-07 12:20 | 54.63613 | 25.28714 | 623 ft | 43 kts | 21° |
| 2026-05-07 12:20 | 54.63821 | 25.28746 | 635 ft | 26 kts | 355° |
| 2026-05-07 12:20 | 54.63983 | 25.28721 | 641 ft | 22 kts | 354° |
| 2026-05-07 12:21 | 54.64127 | 25.28697 | 649 ft | 20 kts | 354° |
| 2026-05-07 12:21 | 54.64215 | 25.28590 | 647 ft | 18 kts | 281° |
| 2026-05-07 12:21 | 54.64212 | 25.28398 | 642 ft | 14 kts | 276° |
| 2026-05-07 12:21 | 54.64242 | 25.28343 | 644 ft | 2 kts | 341° |
| 2026-05-07 12:22 | 54.64282 | 25.28366 | 638 ft | 7 kts | 21° |
| 2026-05-07 12:22 | 54.64328 | 25.28385 | 638 ft | 9 kts | 8° |
| 2026-05-07 12:22 | 54.64405 | 25.28346 | 638 ft | 11 kts | 294° |
| 2026-05-07 12:22 | 54.64370 | 25.28278 | 639 ft | 1 kts | 205° |
| 2026-05-07 12:23 | 54.64367 | 25.28275 | 637 ft | 0 kts | 209° |